createdAt,value
2016-12-26T00:00:27.483Z,0
2016-12-26T00:01:38.065Z,0
2016-12-26T00:02:48.334Z,0
2016-12-26T00:03:59.263Z,0
2016-12-26T00:05:10.176Z,0
2016-12-26T00:06:21.077Z,0
2016-12-26T00:07:31.979Z,0
2016-12-26T00:08:42.963Z,0
2016-12-26T00:09:53.189Z,0
2016-12-26T00:11:03.750Z,0
2016-12-26T00:12:14.319Z,0
2016-12-26T00:13:25.220Z,0
2016-12-26T00:14:35.841Z,0
2016-12-26T00:15:46.394Z,0
2016-12-26T00:16:57.300Z,0
2016-12-26T00:18:08.209Z,0
2016-12-26T00:19:19.110Z,0
2016-12-26T00:20:29.720Z,0
2016-12-26T00:21:40.273Z,0
2016-12-26T00:22:50.842Z,0
2016-12-26T00:24:01.763Z,0
2016-12-26T00:25:12.672Z,0
2016-12-26T00:26:23.282Z,0
2016-12-26T00:27:33.842Z,0
2016-12-26T00:28:44.756Z,0
2016-12-26T00:29:55.317Z,0
2016-12-26T00:31:06.218Z,0
2016-12-26T00:32:16.979Z,0
2016-12-26T00:33:27.881Z,0
2016-12-26T00:34:38.454Z,0
2016-12-26T00:35:49.007Z,0
2016-12-26T00:36:59.912Z,0
2016-12-26T00:38:10.518Z,0
2016-12-26T00:39:21.426Z,0
2016-12-26T00:40:31.988Z,0
2016-12-26T00:41:42.552Z,0
2016-12-26T00:42:53.458Z,0
2016-12-26T00:44:04.419Z,0
2016-12-26T00:45:15.317Z,0
2016-12-26T00:46:25.882Z,0
2016-12-26T00:47:36.791Z,0
2016-12-26T00:48:47.360Z,0
2016-12-26T00:49:57.977Z,0
2016-12-26T00:51:08.542Z,0
2016-12-26T00:52:19.448Z,0
2016-12-26T00:53:29.697Z,0
2016-12-26T00:54:40.598Z,0
2016-12-26T00:55:51.555Z,0
2016-12-26T00:57:02.108Z,0
2016-12-26T00:58:13.025Z,0
2016-12-26T00:59:23.927Z,0
2016-12-26T01:00:34.839Z,0
2016-12-26T01:01:45.449Z,0
2016-12-26T01:02:56.362Z,0
2016-12-26T01:04:06.582Z,0
2016-12-26T01:05:17.149Z,0
2016-12-26T01:06:28.066Z,0
2016-12-26T01:07:39.032Z,0
2016-12-26T01:08:49.940Z,0
2016-12-26T01:10:00.849Z,0
2016-12-26T01:11:11.759Z,0
2016-12-26T01:12:22.676Z,0
2016-12-26T01:13:33.289Z,0
2016-12-26T01:14:43.862Z,0
2016-12-26T01:15:54.769Z,0
2016-12-26T01:17:05.329Z,0
2016-12-26T01:18:15.918Z,0
2016-12-26T01:19:26.879Z,0
2016-12-26T01:20:37.449Z,0
2016-12-26T01:21:48.349Z,0
2016-12-26T01:22:58.919Z,0
2016-12-26T01:24:09.135Z,0
2016-12-26T01:25:20.101Z,0
2016-12-26T01:26:31.042Z,0
2016-12-26T01:27:41.619Z,0
2016-12-26T01:28:52.525Z,0
2016-12-26T01:30:03.074Z,0
2016-12-26T01:31:13.847Z,0
2016-12-26T01:32:24.416Z,0
2016-12-26T01:33:35.333Z,0
2016-12-26T01:34:46.246Z,0
2016-12-26T01:35:57.159Z,0
2016-12-26T01:37:07.768Z,0
2016-12-26T01:38:18.674Z,0
2016-12-26T01:39:29.587Z,0
2016-12-26T01:40:40.144Z,0
2016-12-26T01:41:51.065Z,0
2016-12-26T01:43:01.334Z,0
2016-12-26T01:44:12.236Z,0
2016-12-26T01:45:22.797Z,0
2016-12-26T01:46:33.006Z,0
2016-12-26T01:47:43.599Z,0
2016-12-26T01:48:54.568Z,0
2016-12-26T01:50:05.129Z,0
2016-12-26T01:51:16.058Z,0
2016-12-26T01:52:26.624Z,0
2016-12-26T01:53:37.193Z,0
2016-12-26T01:54:48.150Z,0
2016-12-26T01:55:59.063Z,0
2016-12-26T01:57:09.964Z,0
2016-12-26T01:58:20.901Z,0
2016-12-26T01:59:31.454Z,0
2016-12-26T02:00:42.420Z,0
2016-12-26T02:01:53.329Z,0
2016-12-26T02:03:04.242Z,0
2016-12-26T02:04:15.167Z,0
2016-12-26T02:05:26.068Z,0
2016-12-26T02:06:37.022Z,0
2016-12-26T02:07:47.591Z,0
2016-12-26T02:08:58.500Z,0
2016-12-26T02:10:09.409Z,0
2016-12-26T02:11:19.974Z,0
2016-12-26T02:12:30.924Z,0
2016-12-26T02:13:41.836Z,0
2016-12-26T02:14:52.750Z,0
2016-12-26T02:16:03.663Z,0
2016-12-26T02:17:14.564Z,0
2016-12-26T02:18:25.185Z,0
2016-12-26T02:19:36.111Z,0
2016-12-26T02:20:47.032Z,0
2016-12-26T02:21:57.941Z,0
2016-12-26T02:23:08.846Z,0
2016-12-26T02:24:19.803Z,0
2016-12-26T02:25:30.367Z,0
2016-12-26T02:26:41.273Z,0
2016-12-26T02:27:52.190Z,0
2016-12-26T02:29:03.099Z,0
2016-12-26T02:30:13.756Z,0
2016-12-26T02:31:24.661Z,0
2016-12-26T02:32:35.230Z,0
2016-12-26T02:33:46.135Z,0
2016-12-26T02:34:56.700Z,0
2016-12-26T02:36:07.317Z,0
2016-12-26T02:37:18.222Z,0
2016-12-26T02:38:29.127Z,0
2016-12-26T02:39:40.032Z,0
2016-12-26T02:40:50.598Z,0
2016-12-26T02:42:01.254Z,0
2016-12-26T02:43:12.163Z,0
2016-12-26T02:44:23.076Z,0
2016-12-26T02:45:33.979Z,0
2016-12-26T02:46:44.543Z,0
2016-12-26T02:47:55.159Z,0
2016-12-26T02:49:06.089Z,0
2016-12-26T02:50:16.650Z,0
2016-12-26T02:51:27.563Z,0
2016-12-26T02:52:38.492Z,0
2016-12-26T02:53:49.449Z,0
2016-12-26T02:55:00.362Z,0
2016-12-26T02:56:11.271Z,0
2016-12-26T02:57:21.832Z,0
2016-12-26T02:58:32.393Z,0
2016-12-26T02:59:43.350Z,0
2016-12-26T03:00:54.255Z,0
2016-12-26T03:02:04.472Z,0
2016-12-26T03:03:15.037Z,0
2016-12-26T03:04:25.946Z,0
2016-12-26T03:05:36.208Z,0
2016-12-26T03:06:46.789Z,0
2016-12-26T03:07:57.350Z,0
2016-12-26T03:09:08.263Z,0
2016-12-26T03:10:18.824Z,0
2016-12-26T03:11:29.438Z,0
2016-12-26T03:12:40.346Z,0
2016-12-26T03:13:50.568Z,0
2016-12-26T03:15:01.477Z,0
2016-12-26T03:16:12.390Z,0
2016-12-26T03:17:23.344Z,0
2016-12-26T03:18:34.260Z,0
2016-12-26T03:19:44.825Z,0
2016-12-26T03:20:55.734Z,0
2016-12-26T03:22:06.648Z,0
2016-12-26T03:23:17.649Z,0
2016-12-26T03:24:28.566Z,0
2016-12-26T03:25:39.131Z,0
2016-12-26T03:26:50.044Z,0
2016-12-26T03:28:00.645Z,0
2016-12-26T03:29:11.607Z,0
2016-12-26T03:30:22.516Z,0
2016-12-26T03:31:33.417Z,0
2016-12-26T03:32:43.986Z,0
2016-12-26T03:33:54.895Z,0
2016-12-26T03:35:05.852Z,0
2016-12-26T03:36:16.486Z,0
2016-12-26T03:37:27.047Z,0
2016-12-26T03:38:37.608Z,0
2016-12-26T03:39:48.173Z,0
2016-12-26T03:40:58.447Z,0
2016-12-26T03:42:09.024Z,0
2016-12-26T03:43:19.585Z,0
2016-12-26T03:44:30.495Z,0
2016-12-26T03:45:40.723Z,0
2016-12-26T03:46:51.708Z,0
2016-12-26T03:48:02.270Z,0
2016-12-26T03:49:12.839Z,0
2016-12-26T03:50:23.744Z,0
2016-12-26T03:51:34.654Z,0
2016-12-26T03:52:45.263Z,0
2016-12-26T03:53:56.168Z,0
2016-12-26T03:55:07.077Z,0
2016-12-26T03:56:17.987Z,0
2016-12-26T03:57:28.552Z,0
2016-12-26T03:58:39.553Z,0
2016-12-26T03:59:50.119Z,0
2016-12-26T04:01:01.024Z,0
2016-12-26T04:02:11.589Z,0
2016-12-26T04:03:22.159Z,0
2016-12-26T04:04:32.440Z,0
2016-12-26T04:05:43.371Z,0
2016-12-26T04:06:54.278Z,0
2016-12-26T04:08:05.191Z,0
2016-12-26T04:09:15.757Z,0
2016-12-26T04:10:26.373Z,0
2016-12-26T04:11:37.279Z,0
2016-12-26T04:12:47.844Z,0
2016-12-26T04:13:58.413Z,0
2016-12-26T04:15:08.978Z,0
2016-12-26T04:16:19.588Z,0
2016-12-26T04:17:30.489Z,0
2016-12-26T04:18:41.090Z,0
2016-12-26T04:19:51.995Z,0
2016-12-26T04:21:02.560Z,0
2016-12-26T04:22:13.518Z,0
2016-12-26T04:23:24.419Z,0
2016-12-26T04:24:35.340Z,0
2016-12-26T04:25:45.893Z,0
2016-12-26T04:26:56.806Z,0
2016-12-26T04:28:07.775Z,0
2016-12-26T04:29:18.677Z,0
2016-12-26T04:30:29.242Z,0
2016-12-26T04:31:40.175Z,0
2016-12-26T04:32:51.089Z,0
2016-12-26T04:34:02.070Z,0
2016-12-26T04:35:12.627Z,0
2016-12-26T04:36:23.529Z,0
2016-12-26T04:37:33.746Z,0
2016-12-26T04:38:44.307Z,0
2016-12-26T04:39:54.920Z,0
2016-12-26T04:41:05.834Z,0
2016-12-26T04:42:16.395Z,0
2016-12-26T04:43:26.960Z,0
2016-12-26T04:44:37.541Z,0
2016-12-26T04:45:48.162Z,0
2016-12-26T04:46:58.767Z,0
2016-12-26T04:48:09.333Z,0
2016-12-26T04:49:19.906Z,0
2016-12-26T04:50:30.827Z,0
2016-12-26T04:51:41.789Z,0
2016-12-26T04:52:52.354Z,0
2016-12-26T04:54:02.923Z,0
2016-12-26T04:55:13.484Z,0
2016-12-26T04:56:24.394Z,0
2016-12-26T04:57:35.011Z,0
2016-12-26T04:58:45.572Z,0
2016-12-26T04:59:56.486Z,0
2016-12-26T05:01:07.043Z,0
2016-12-26T05:02:17.948Z,0
2016-12-26T05:03:28.561Z,0
2016-12-26T05:04:39.474Z,0
2016-12-26T05:05:50.376Z,0
2016-12-26T05:07:01.305Z,0
2016-12-26T05:08:12.214Z,0
2016-12-26T05:09:22.984Z,0
2016-12-26T05:10:33.893Z,0
2016-12-26T05:11:44.842Z,0
2016-12-26T05:12:55.403Z,0
2016-12-26T05:14:06.309Z,0
2016-12-26T05:15:16.925Z,0
2016-12-26T05:16:27.835Z,0
2016-12-26T05:17:38.744Z,0
2016-12-26T05:18:49.657Z,0
2016-12-26T05:20:00.239Z,0
2016-12-26T05:21:11.204Z,0
2016-12-26T05:22:21.793Z,0
2016-12-26T05:23:32.354Z,0
2016-12-26T05:24:42.924Z,0
2016-12-26T05:25:53.145Z,0
2016-12-26T05:27:04.102Z,0
2016-12-26T05:28:15.011Z,0
2016-12-26T05:29:25.572Z,0
2016-12-26T05:30:36.493Z,0
2016-12-26T05:31:47.391Z,0
2016-12-26T05:32:58.000Z,0
2016-12-26T05:34:08.909Z,0
2016-12-26T05:35:19.462Z,0
2016-12-26T05:36:30.028Z,0
2016-12-26T05:37:40.609Z,0
2016-12-26T05:38:51.562Z,0
2016-12-26T05:40:02.480Z,0
2016-12-26T05:41:13.381Z,0
2016-12-26T05:42:23.946Z,0
2016-12-26T05:43:34.851Z,0
2016-12-26T05:44:45.460Z,0
2016-12-26T05:45:56.362Z,0
2016-12-26T05:47:07.279Z,0
2016-12-26T05:48:17.833Z,0
2016-12-26T05:49:28.393Z,0
2016-12-26T05:50:39.011Z,0
2016-12-26T05:51:49.576Z,0
2016-12-26T05:53:00.485Z,0
2016-12-26T05:54:11.391Z,0
2016-12-26T05:55:22.312Z,0
2016-12-26T05:56:33.269Z,0
2016-12-26T05:57:43.869Z,0
2016-12-26T05:58:54.799Z,0
2016-12-26T06:00:05.012Z,0
2016-12-26T06:01:15.957Z,0
2016-12-26T06:02:26.571Z,0
2016-12-26T06:03:37.128Z,0
2016-12-26T06:04:48.039Z,0
2016-12-26T06:05:58.942Z,0
2016-12-26T06:07:09.507Z,0
2016-12-26T06:08:20.465Z,0
2016-12-26T06:09:31.026Z,0
2016-12-26T06:10:41.928Z,0
2016-12-26T06:11:52.836Z,0
2016-12-26T06:13:03.749Z,0
2016-12-26T06:14:14.354Z,0
2016-12-26T06:15:24.920Z,0
2016-12-26T06:16:35.833Z,0
2016-12-26T06:17:46.430Z,0
2016-12-26T06:18:56.992Z,0
2016-12-26T06:20:07.605Z,0
2016-12-26T06:21:18.522Z,0
2016-12-26T06:22:29.431Z,0
2016-12-26T06:23:39.992Z,0
2016-12-26T06:24:50.906Z,0
2016-12-26T06:26:01.871Z,0
2016-12-26T06:27:12.783Z,0
2016-12-26T06:28:23.689Z,0
2016-12-26T06:29:34.254Z,0
2016-12-26T06:30:45.167Z,0
2016-12-26T06:31:56.116Z,0
2016-12-26T06:33:07.030Z,0
2016-12-26T06:34:17.582Z,0
2016-12-26T06:35:28.528Z,0
2016-12-26T06:36:39.097Z,0
2016-12-26T06:37:50.206Z,0
2016-12-26T06:39:00.767Z,0
2016-12-26T06:40:11.333Z,0
2016-12-26T06:41:22.234Z,0
2016-12-26T06:42:33.147Z,0
2016-12-26T06:43:44.104Z,0
2016-12-26T06:44:55.017Z,0
2016-12-26T06:46:05.587Z,0
2016-12-26T06:47:15.820Z,0
2016-12-26T06:48:26.381Z,0
2016-12-26T06:49:37.573Z,0
2016-12-26T06:50:48.484Z,0
2016-12-26T06:51:59.044Z,0
2016-12-26T06:53:09.946Z,0
2016-12-26T06:54:20.863Z,0
2016-12-26T06:55:31.823Z,0
2016-12-26T06:56:42.389Z,0
2016-12-26T06:57:53.290Z,0
2016-12-26T06:59:03.515Z,0
2016-12-26T07:00:14.420Z,0
2016-12-26T07:01:25.378Z,0
2016-12-26T07:02:36.287Z,0
2016-12-26T07:03:46.852Z,4
2016-12-26T07:04:57.769Z,0
2016-12-26T07:06:08.682Z,0
2016-12-26T07:07:19.292Z,8
2016-12-26T07:08:30.200Z,4
2016-12-26T07:09:41.114Z,4
2016-12-26T07:10:51.683Z,8
2016-12-26T07:12:02.240Z,8
2016-12-26T07:13:12.909Z,8
2016-12-26T07:14:23.119Z,12
2016-12-26T07:15:33.691Z,12
2016-12-26T07:16:44.249Z,12
2016-12-26T07:17:54.822Z,16
2016-12-26T07:19:05.819Z,16
2016-12-26T07:20:16.388Z,16
2016-12-26T07:21:27.505Z,36
2016-12-26T07:22:39.691Z,36
2016-12-26T07:23:51.604Z,32
2016-12-26T07:25:03.109Z,36
2016-12-26T07:26:13.450Z,40
2016-12-26T07:27:24.355Z,48
2016-12-26T07:28:35.265Z,56
2016-12-26T07:29:46.173Z,64
2016-12-26T07:30:56.443Z,80
2016-12-26T07:32:07.016Z,72
2016-12-26T07:33:17.925Z,100
2016-12-26T07:34:28.506Z,92
2016-12-26T07:35:39.063Z,92
2016-12-26T07:36:50.024Z,68
2016-12-26T07:38:00.582Z,100
2016-12-26T07:39:11.499Z,120
2016-12-26T07:40:22.220Z,128
2016-12-26T07:41:32.793Z,172
2016-12-26T07:42:43.410Z,140
2016-12-26T07:43:54.027Z,196
2016-12-26T07:45:05.069Z,216
2016-12-26T07:46:15.830Z,224
2016-12-26T07:47:26.399Z,224
2016-12-26T07:48:37.012Z,244
2016-12-26T07:49:47.577Z,204
2016-12-26T07:50:58.483Z,152
2016-12-26T07:52:09.396Z,216
2016-12-26T07:53:20.304Z,200
2016-12-26T07:54:30.922Z,292
2016-12-26T07:55:41.827Z,196
2016-12-26T07:56:52.736Z,280
2016-12-26T07:58:03.302Z,280
2016-12-26T07:59:13.870Z,236
2016-12-26T08:00:24.828Z,304
2016-12-26T08:01:35.393Z,240
2016-12-26T08:02:45.982Z,280
2016-12-26T08:03:56.547Z,388
2016-12-26T08:05:07.452Z,436
2016-12-26T08:06:18.405Z,404
2016-12-26T08:07:29.343Z,532
2016-12-26T08:08:40.244Z,456
2016-12-26T08:09:51.153Z,504
2016-12-26T08:11:01.726Z,544
2016-12-26T08:12:12.684Z,596
2016-12-26T08:13:23.609Z,576
2016-12-26T08:14:34.170Z,748
2016-12-26T08:15:45.088Z,432
2016-12-26T08:16:55.648Z,340
2016-12-26T08:18:06.609Z,524
2016-12-26T08:19:17.514Z,528
2016-12-26T08:20:28.427Z,496
2016-12-26T08:21:38.993Z,692
2016-12-26T08:22:49.901Z,664
2016-12-26T08:24:00.523Z,560
2016-12-26T08:25:11.096Z,564
2016-12-26T08:26:21.657Z,560
2016-12-26T08:27:32.230Z,488
2016-12-26T08:28:43.140Z,420
2016-12-26T08:29:53.761Z,428
2016-12-26T08:31:04.322Z,376
2016-12-26T08:32:14.883Z,460
2016-12-26T08:33:25.788Z,436
2016-12-26T08:34:36.405Z,340
2016-12-26T08:35:47.371Z,232
2016-12-26T08:36:57.592Z,288
2016-12-26T08:38:08.497Z,300
2016-12-26T08:39:19.402Z,304
2016-12-26T08:40:29.967Z,364
2016-12-26T08:41:40.581Z,388
2016-12-26T08:42:51.486Z,444
2016-12-26T08:44:02.399Z,456
2016-12-26T08:45:13.308Z,544
2016-12-26T08:46:23.877Z,640
2016-12-26T08:47:34.830Z,716
2016-12-26T08:48:45.731Z,876
2016-12-26T08:49:56.641Z,484
2016-12-26T08:51:07.550Z,956
2016-12-26T08:52:18.115Z,1596
2016-12-26T08:53:29.076Z,2532
2016-12-26T08:54:39.641Z,1744
2016-12-26T08:55:50.551Z,1724
2016-12-26T08:57:01.464Z,1688
2016-12-26T08:58:12.373Z,1180
2016-12-26T08:59:23.347Z,828
2016-12-26T09:00:34.264Z,744
2016-12-26T09:01:45.176Z,936
2016-12-26T09:02:56.081Z,1020
2016-12-26T09:04:06.691Z,984
2016-12-26T09:05:17.392Z,1184
2016-12-26T09:06:28.305Z,1240
2016-12-26T09:07:39.222Z,1136
2016-12-26T09:08:50.128Z,760
2016-12-26T09:10:01.037Z,968
2016-12-26T09:11:11.762Z,920
2016-12-26T09:12:22.671Z,980
2016-12-26T09:13:33.584Z,1064
2016-12-26T09:14:44.509Z,1148
2016-12-26T09:15:55.412Z,1280
2016-12-26T09:17:06.372Z,1428
2016-12-26T09:18:17.281Z,1504
2016-12-26T09:19:28.202Z,1424
2016-12-26T09:20:38.763Z,1268
2016-12-26T09:21:49.324Z,1404
2016-12-26T09:23:00.281Z,1460
2016-12-26T09:24:11.191Z,1644
2016-12-26T09:25:22.098Z,1328
2016-12-26T09:26:33.017Z,1584
2016-12-26T09:27:43.582Z,1188
2016-12-26T09:28:54.252Z,1420
2016-12-26T09:30:05.168Z,1644
2016-12-26T09:31:15.738Z,1480
2016-12-26T09:32:26.311Z,2404
2016-12-26T09:33:37.248Z,2080
2016-12-26T09:34:48.205Z,2156
2016-12-26T09:35:58.762Z,2216
2016-12-26T09:37:09.676Z,1172
2016-12-26T09:38:20.617Z,912
2016-12-26T09:39:31.522Z,1448
2016-12-26T09:40:42.135Z,1380
2016-12-26T09:41:53.052Z,1100
2016-12-26T09:43:03.961Z,604
2016-12-26T09:44:14.527Z,268
2016-12-26T09:45:25.100Z,228
2016-12-26T09:46:36.061Z,228
2016-12-26T09:47:46.626Z,268
2016-12-26T09:48:57.543Z,228
2016-12-26T09:50:08.449Z,324
2016-12-26T09:51:19.018Z,420
2016-12-26T09:52:29.663Z,692
2016-12-26T09:53:40.576Z,1076
2016-12-26T09:54:51.141Z,1000
2016-12-26T09:56:01.718Z,932
2016-12-26T09:57:12.627Z,904
2016-12-26T09:58:23.589Z,1196
2016-12-26T09:59:34.510Z,1112
2016-12-26T10:00:45.447Z,1340
2016-12-26T10:01:56.008Z,1572
2016-12-26T10:03:06.566Z,1576
2016-12-26T10:04:17.179Z,1336
2016-12-26T10:05:27.752Z,1164
2016-12-26T10:06:38.325Z,1004
2016-12-26T10:07:49.230Z,872
2016-12-26T10:09:00.128Z,756
2016-12-26T10:10:10.741Z,908
2016-12-26T10:11:21.650Z,760
2016-12-26T10:12:32.559Z,604
2016-12-26T10:13:43.140Z,600
2016-12-26T10:14:54.074Z,600
2016-12-26T10:16:04.687Z,816
2016-12-26T10:17:15.256Z,2096
2016-12-26T10:18:25.813Z,2196
2016-12-26T10:19:36.723Z,1752
2016-12-26T10:20:47.287Z,1500
2016-12-26T10:21:58.248Z,1344
2016-12-26T10:23:09.162Z,1396
2016-12-26T10:24:20.079Z,1752
2016-12-26T10:25:30.992Z,1976
2016-12-26T10:26:41.905Z,2128
2016-12-26T10:27:52.522Z,2128
2016-12-26T10:29:03.099Z,2348
2016-12-26T10:30:13.669Z,2292
2016-12-26T10:31:24.574Z,2216
2016-12-26T10:32:35.131Z,1980
2016-12-26T10:33:45.772Z,2016
2016-12-26T10:34:56.338Z,1948
2016-12-26T10:36:07.259Z,1928
2016-12-26T10:37:18.176Z,1960
2016-12-26T10:38:28.729Z,1880
2016-12-26T10:39:39.690Z,1584
2016-12-26T10:40:50.243Z,1564
2016-12-26T10:42:01.152Z,1704
2016-12-26T10:43:12.057Z,1600
2016-12-26T10:44:23.007Z,1368
2016-12-26T10:45:33.616Z,1548
2016-12-26T10:46:43.853Z,1500
2016-12-26T10:47:54.755Z,1420
2016-12-26T10:49:05.320Z,1384
2016-12-26T10:50:16.229Z,1388
2016-12-26T10:51:27.190Z,1760
2016-12-26T10:52:38.107Z,1916
2016-12-26T10:53:49.036Z,2028
2016-12-26T10:54:59.938Z,2020
2016-12-26T10:56:10.858Z,2096
2016-12-26T10:57:21.816Z,2016
2016-12-26T10:58:32.373Z,1720
2016-12-26T10:59:43.278Z,1420
2016-12-26T11:00:54.187Z,1600
2016-12-26T11:02:05.105Z,1444
2016-12-26T11:03:15.721Z,1156
2016-12-26T11:04:26.315Z,1084
2016-12-26T11:05:37.266Z,864
2016-12-26T11:06:47.838Z,868
2016-12-26T11:07:58.407Z,884
2016-12-26T11:09:09.368Z,932
2016-12-26T11:10:19.929Z,1240
2016-12-26T11:11:30.490Z,1176
2016-12-26T11:12:41.064Z,1204
2016-12-26T11:13:52.008Z,1224
2016-12-26T11:15:02.958Z,1460
2016-12-26T11:16:13.867Z,1544
2016-12-26T11:17:24.800Z,1584
2016-12-26T11:18:35.373Z,1488
2016-12-26T11:19:45.935Z,1524
2016-12-26T11:20:56.540Z,1472
2016-12-26T11:22:07.441Z,1440
2016-12-26T11:23:18.358Z,1408
2016-12-26T11:24:28.584Z,1580
2016-12-26T11:25:39.160Z,1492
2016-12-26T11:26:49.774Z,1456
2016-12-26T11:28:00.683Z,1488
2016-12-26T11:29:11.248Z,1772
2016-12-26T11:30:22.166Z,2336
2016-12-26T11:31:33.070Z,2196
2016-12-26T11:32:43.744Z,2016
2016-12-26T11:33:54.696Z,2060
2016-12-26T11:35:05.642Z,1976
2016-12-26T11:36:16.555Z,1872
2016-12-26T11:37:27.124Z,2176
2016-12-26T11:38:37.737Z,1556
2016-12-26T11:39:48.303Z,1372
2016-12-26T11:40:59.216Z,1504
2016-12-26T11:42:09.777Z,1400
2016-12-26T11:43:20.682Z,1552
2016-12-26T11:44:31.651Z,1984
2016-12-26T11:45:42.573Z,1948
2016-12-26T11:46:53.486Z,1992
2016-12-26T11:48:04.395Z,2184
2016-12-26T11:49:14.960Z,2276
2016-12-26T11:50:25.925Z,2384
2016-12-26T11:51:36.495Z,2116
2016-12-26T11:52:47.416Z,2384
2016-12-26T11:53:58.324Z,1840
2016-12-26T11:55:08.894Z,1696
2016-12-26T11:56:19.507Z,2024
2016-12-26T11:57:29.732Z,2876
2016-12-26T11:58:40.297Z,3024
2016-12-26T11:59:50.859Z,2468
2016-12-26T12:01:01.441Z,2072
2016-12-26T12:02:12.053Z,1604
2016-12-26T12:03:22.966Z,1756
2016-12-26T12:04:33.532Z,2352
2016-12-26T12:05:44.436Z,2724
2016-12-26T12:06:55.353Z,3600
2016-12-26T12:08:06.319Z,6760
2016-12-26T12:09:16.884Z,4340
2016-12-26T12:10:27.453Z,3468
2016-12-26T12:11:38.374Z,3576
2016-12-26T12:12:48.932Z,1932
2016-12-26T12:13:59.545Z,1984
2016-12-26T12:15:10.450Z,1920
2016-12-26T12:16:21.011Z,1456
2016-12-26T12:17:31.920Z,1776
2016-12-26T12:18:42.494Z,1908
2016-12-26T12:19:53.139Z,2824
2016-12-26T12:21:03.696Z,2156
2016-12-26T12:22:14.609Z,1712
2016-12-26T12:23:25.518Z,2076
2016-12-26T12:24:36.076Z,2472
2016-12-26T12:25:46.692Z,2000
2016-12-26T12:26:57.602Z,1552
2016-12-26T12:28:08.515Z,1000
2016-12-26T12:29:19.428Z,1560
2016-12-26T12:30:30.341Z,2208
2016-12-26T12:31:40.606Z,2548
2016-12-26T12:32:50.816Z,1900
2016-12-26T12:34:01.385Z,2020
2016-12-26T12:35:12.542Z,1672
2016-12-26T12:36:23.864Z,1920
2016-12-26T12:37:35.240Z,1840
2016-12-26T12:38:46.316Z,2156
2016-12-26T12:39:57.224Z,2348
2016-12-26T12:41:07.796Z,2036
2016-12-26T12:42:18.705Z,3016
2016-12-26T12:43:29.311Z,1876
2016-12-26T12:44:40.220Z,2352
2016-12-26T12:45:51.129Z,1512
2016-12-26T12:47:01.706Z,2032
2016-12-26T12:48:12.615Z,1192
2016-12-26T12:49:23.233Z,936
2016-12-26T12:50:33.826Z,1244
2016-12-26T12:51:44.735Z,1280
2016-12-26T12:52:54.944Z,2000
2016-12-26T12:54:05.165Z,1672
2016-12-26T12:55:15.774Z,1592
2016-12-26T12:56:26.347Z,1908
2016-12-26T12:57:37.252Z,1472
2016-12-26T12:58:48.162Z,2044
2016-12-26T12:59:58.731Z,1452
2016-12-26T13:01:09.680Z,1544
2016-12-26T13:02:20.589Z,1592
2016-12-26T13:03:31.152Z,2028
2016-12-26T13:04:42.068Z,1924
2016-12-26T13:05:52.977Z,1520
2016-12-26T13:07:03.578Z,1264
2016-12-26T13:08:14.519Z,664
2016-12-26T13:09:25.440Z,1100
2016-12-26T13:10:36.006Z,784
2016-12-26T13:11:46.571Z,548
2016-12-26T13:12:57.520Z,376
2016-12-26T13:14:08.429Z,820
2016-12-26T13:15:19.342Z,788
2016-12-26T13:16:29.939Z,636
2016-12-26T13:17:40.844Z,1012
2016-12-26T13:18:51.458Z,808
2016-12-26T13:20:02.363Z,812
2016-12-26T13:21:12.958Z,888
2016-12-26T13:22:23.862Z,696
2016-12-26T13:23:34.422Z,468
2016-12-26T13:24:45.380Z,404
2016-12-26T13:25:55.943Z,324
2016-12-26T13:27:06.854Z,332
2016-12-26T13:28:17.759Z,416
2016-12-26T13:29:28.660Z,1024
2016-12-26T13:30:39.274Z,1296
2016-12-26T13:31:49.831Z,924
2016-12-26T13:33:00.737Z,756
2016-12-26T13:34:11.305Z,716
2016-12-26T13:35:21.874Z,664
2016-12-26T13:36:32.828Z,1760
2016-12-26T13:37:43.393Z,1244
2016-12-26T13:38:54.294Z,772
2016-12-26T13:40:05.206Z,880
2016-12-26T13:41:15.768Z,760
2016-12-26T13:42:26.385Z,672
2016-12-26T13:43:37.294Z,684
2016-12-26T13:44:48.228Z,660
2016-12-26T13:45:58.789Z,660
2016-12-26T13:47:09.698Z,524
2016-12-26T13:48:20.652Z,728
2016-12-26T13:49:31.220Z,972
2016-12-26T13:50:42.122Z,1436
2016-12-26T13:51:52.683Z,1892
2016-12-26T13:53:03.584Z,1992
2016-12-26T13:54:14.549Z,1400
2016-12-26T13:55:25.462Z,1020
2016-12-26T13:56:36.024Z,1016
2016-12-26T13:57:46.929Z,1352
2016-12-26T13:58:57.846Z,1144
2016-12-26T14:00:08.111Z,1356
2016-12-26T14:01:18.676Z,1552
2016-12-26T14:02:29.586Z,1344
2016-12-26T14:03:40.494Z,1044
2016-12-26T14:04:51.056Z,892
2016-12-26T14:06:02.033Z,876
2016-12-26T14:07:12.934Z,1048
2016-12-26T14:08:23.156Z,1296
2016-12-26T14:09:33.749Z,1668
2016-12-26T14:10:44.650Z,1916
2016-12-26T14:11:55.663Z,1408
2016-12-26T14:13:06.227Z,1072
2016-12-26T14:14:17.141Z,1672
2016-12-26T14:15:27.702Z,1472
2016-12-26T14:16:38.603Z,744
2016-12-26T14:17:49.576Z,548
2016-12-26T14:19:00.476Z,996
2016-12-26T14:20:11.382Z,1368
2016-12-26T14:21:21.946Z,892
2016-12-26T14:22:32.876Z,520
2016-12-26T14:23:43.829Z,456
2016-12-26T14:24:54.398Z,452
2016-12-26T14:26:04.975Z,512
2016-12-26T14:27:15.884Z,652
2016-12-26T14:28:26.789Z,616
2016-12-26T14:29:37.502Z,564
2016-12-26T14:30:47.715Z,608
2016-12-26T14:31:58.281Z,508
2016-12-26T14:33:09.193Z,408
2016-12-26T14:34:20.102Z,404
2016-12-26T14:35:31.063Z,400
2016-12-26T14:36:41.620Z,388
2016-12-26T14:37:52.209Z,388
2016-12-26T14:39:03.110Z,356
2016-12-26T14:40:13.679Z,392
2016-12-26T14:41:24.645Z,400
2016-12-26T14:42:35.273Z,348
2016-12-26T14:43:45.834Z,320
2016-12-26T14:44:56.044Z,324
2016-12-26T14:46:06.608Z,300
2016-12-26T14:47:17.569Z,300
2016-12-26T14:48:28.130Z,272
2016-12-26T14:49:39.035Z,280
2016-12-26T14:50:49.628Z,248
2016-12-26T14:52:00.541Z,256
2016-12-26T14:53:11.299Z,248
2016-12-26T14:54:21.871Z,224
2016-12-26T14:55:32.776Z,208
2016-12-26T14:56:43.681Z,200
2016-12-26T14:57:54.242Z,200
2016-12-26T14:59:04.852Z,188
2016-12-26T15:00:15.431Z,180
2016-12-26T15:01:26.332Z,184
2016-12-26T15:02:37.225Z,164
2016-12-26T15:03:47.791Z,172
2016-12-26T15:04:58.412Z,196
2016-12-26T15:06:08.977Z,160
2016-12-26T15:07:19.886Z,132
2016-12-26T15:08:30.448Z,124
2016-12-26T15:09:41.357Z,112
2016-12-26T15:10:51.962Z,100
2016-12-26T15:12:02.523Z,100
2016-12-26T15:13:13.092Z,88
2016-12-26T15:14:23.653Z,80
2016-12-26T15:15:34.586Z,72
2016-12-26T15:16:45.207Z,68
2016-12-26T15:17:56.124Z,60
2016-12-26T15:19:07.029Z,56
2016-12-26T15:20:17.623Z,48
2016-12-26T15:21:28.180Z,44
2016-12-26T15:22:39.137Z,40
2016-12-26T15:23:50.044Z,32
2016-12-26T15:25:00.983Z,32
2016-12-26T15:26:11.556Z,28
2016-12-26T15:27:22.128Z,24
2016-12-26T15:28:33.134Z,20
2016-12-26T15:29:44.039Z,16
2016-12-26T15:30:54.941Z,16
2016-12-26T15:32:05.506Z,12
2016-12-26T15:33:16.423Z,12
2016-12-26T15:34:27.128Z,8
2016-12-26T15:35:37.701Z,8
2016-12-26T15:36:48.263Z,8
2016-12-26T15:37:58.827Z,4
2016-12-26T15:39:09.393Z,4
2016-12-26T15:40:20.006Z,4
2016-12-26T15:41:30.575Z,4
2016-12-26T15:42:41.484Z,0
2016-12-26T15:43:51.709Z,4
2016-12-26T15:45:02.630Z,4
2016-12-26T15:46:13.735Z,0
2016-12-26T15:47:24.296Z,0
2016-12-26T15:48:34.861Z,0
2016-12-26T15:49:45.774Z,0
2016-12-26T15:50:56.331Z,0
2016-12-26T15:52:07.276Z,0
2016-12-26T15:53:17.841Z,0
2016-12-26T15:54:28.403Z,0
2016-12-26T15:55:38.964Z,0
2016-12-26T15:56:49.528Z,0
2016-12-26T15:58:00.138Z,0
2016-12-26T15:59:11.039Z,0
2016-12-26T16:00:21.969Z,0
2016-12-26T16:01:32.889Z,0
2016-12-26T16:02:43.106Z,0
2016-12-26T16:03:53.768Z,0
2016-12-26T16:05:04.685Z,0
2016-12-26T16:06:15.602Z,0
2016-12-26T16:07:26.504Z,0
2016-12-26T16:08:37.416Z,0
2016-12-26T16:09:48.029Z,0
2016-12-26T16:10:58.590Z,0
2016-12-26T16:12:09.164Z,0
2016-12-26T16:13:20.068Z,0
2016-12-26T16:14:30.625Z,0
2016-12-26T16:15:41.574Z,0
2016-12-26T16:16:52.488Z,0
2016-12-26T16:18:02.717Z,0
2016-12-26T16:19:13.634Z,0
2016-12-26T16:20:24.191Z,0
2016-12-26T16:21:34.800Z,0
2016-12-26T16:22:45.357Z,0
2016-12-26T16:23:56.262Z,0
2016-12-26T16:25:06.823Z,0
2016-12-26T16:26:17.399Z,0
2016-12-26T16:27:28.017Z,0
2016-12-26T16:28:38.570Z,0
2016-12-26T16:29:49.515Z,0
2016-12-26T16:31:00.081Z,0
2016-12-26T16:32:10.990Z,0
2016-12-26T16:33:21.943Z,0
2016-12-26T16:34:32.497Z,0
2016-12-26T16:35:43.434Z,0
2016-12-26T16:36:54.343Z,0
2016-12-26T16:38:04.912Z,0
2016-12-26T16:39:15.533Z,0
2016-12-26T16:40:26.126Z,0
2016-12-26T16:41:37.028Z,0